• Join FlightAware (Why Join?)
  • Login
  • US Flag 
10:51AM EDT


 

Airport Tracker/Info


-or-


 

Live Flight TrackerFlight Track Log ✈ ACA831 ✈ 09-May-2013 ✈ CYUL - CYYZ

Flight Track Log - Related Links

Times and Time Zones

All times are in EDT time to prevent confusion due to time zone crossing. See the ACA831 flight status page for this flight to view local times or setup timezone preferences in your user account.

Time Position Orientation Groundspeed Altitude Reporting Facility
EDT Latitude Longitude Course Direction KTS MPH feet Rate Location/Type
04:15PM 45.4540 -73.7410 215° Southwest 160 184 1,400  Level FlightAware
04:15PM 45.4380 -73.7600 220° Southwest 188 216 2,600 2,700 Climbing FlightAware
04:16PM 45.4160 -73.7880 222° Southwest 226 260 3,900 2,880 Climbing FlightAware
04:16PM 45.4040 -73.8060 226° Southwest 240 276 4,800 3,600 Climbing FlightAware
04:16PM 45.4000 -73.8210 249° West 250 288 5,400 3,900 Climbing FlightAware
04:17PM 45.4000 -73.8720 270° West 266 306 7,400 4,020 Climbing FlightAware
04:17PM 45.4020 -73.9160 274° West 278 320 9,100 3,600 Climbing FlightAware
04:18PM 45.4050 -74.0050 273° West 323 372 11,600 3,240 Climbing FlightAware
04:19PM 45.4070 -74.0950 272° West 354 407 13,700 3,360 Climbing FlightAware
04:19PM 45.4100 -74.1990 272° West 372 428 16,400 3,600 Climbing FlightAware
04:20PM 45.4130 -74.2970 273° West 384 442 18,800 3,480 Climbing FlightAware
04:21PM 45.4150 -74.4150 271° West 396 456 21,400 3,300 Climbing FlightAware
04:22PM 45.4110 -74.5200 267° West 408 470 23,500 3,000 Climbing FlightAware
04:22PM 45.4090 -74.6130 268° West 419 482 25,200 2,700 Climbing FlightAware
04:23PM 45.4000 -74.7530 265° West 430 495 27,400 2,580 Climbing FlightAware
04:24PM 45.3780 -74.8630 254° West 441 507 29,100 2,880 Climbing FlightAware
04:24PM 45.3560 -74.9720 254° West 429 494 31,300 3,000 Climbing FlightAware
04:25PM 45.3300 -75.0960 253° West 424 488 33,400 1,860 Climbing FlightAware
04:26PM 45.3060 -75.2010 252° West 428 493 34,000 420 Climbing FlightAware
04:26PM 45.2790 -75.3160 252° West 429 494 34,000  Level FlightAware
04:27PM 45.2540 -75.4240 252° West 431 496 34,000  Level FlightAware
04:28PM 45.2250 -75.5440 251° West 431 496 34,000  Level FlightAware
04:28PM 45.2040 -75.6300 251° West 430 495 34,000  Level FlightAware
04:29PM 45.1790 -75.7360 252° West 427 491 34,000  Level FlightAware
04:30PM 45.1470 -75.8750 252° West 427 491 34,000  Level FlightAware
04:31PM 45.1310 -75.9840 258° West 425 489 34,000  Level FlightAware
04:31PM 45.1180 -76.0960 261° West 423 487 34,000  Level FlightAware
04:32PM 45.1020 -76.2160 259° West 426 490 34,000  Level FlightAware
04:33PM 45.0690 -76.3130 244° Southwest 427 491 34,000  Level FlightAware
04:33PM 45.0270 -76.4220 241° Southwest 427 491 34,000  Level FlightAware
04:34PM 44.9910 -76.5120 241° Southwest 427 491 34,000  Level FlightAware
04:35PM 44.9490 -76.6190 241° Southwest 427 491 34,000  Level FlightAware
04:36PM 44.9070 -76.7250 241° Southwest 427 491 34,000  Level FlightAware
04:36PM 44.8660 -76.8270 240° Southwest 426 490 34,000  Level FlightAware
04:37PM 44.8240 -76.9330 241° Southwest 425 489 34,000  Level FlightAware
04:38PM 44.7890 -77.0210 241° Southwest 423 487 34,000  Level FlightAware
04:38PM 44.7470 -77.1260 241° Southwest 422 486 34,000 -180 Level FlightAware
04:39PM 44.7050 -77.2300 240° Southwest 411 473 33,800 -780 Descending FlightAware
04:40PM 44.6670 -77.3240 240° Southwest 403 464 32,900 -1,740 Descending FlightAware
04:40PM 44.6260 -77.4260 241° Southwest 394 453 31,400 -1,920 Descending FlightAware
04:41PM 44.5920 -77.5080 240° Southwest 389 448 30,200 -1,920 Descending FlightAware
04:42PM 44.5550 -77.5980 240° Southwest 382 440 28,900 -1,800 Descending FlightAware
04:43PM 44.4990 -77.7370 241° Southwest 373 429 27,100 -1,740 Descending FlightAware
04:44PM 44.4610 -77.8280 240° Southwest 366 421 25,800 -1,680 Descending FlightAware
04:44PM 44.4380 -77.8850 241° Southwest 361 415 25,000 -1,680 Descending FlightAware
04:45PM 44.4070 -77.9650 242° Southwest 352 405 23,900 -2,160 Descending FlightAware
04:46PM 44.3770 -78.0630 247° West 361 415 22,000 -2,100 Descending FlightAware
04:46PM 44.3500 -78.1470 246° West 347 399 21,000 -1,560 Descending FlightAware
04:47PM 44.3230 -78.2310 246° West 340 391 19,800 -1,740 Descending FlightAware
04:48PM 44.2960 -78.3200 247° West 334 384 18,600 -1,800 Descending FlightAware
04:48PM 44.2690 -78.3840 240° Southwest 332 382 17,600 -1,680 Descending FlightAware
04:49PM 44.2250 -78.4700 234° Southwest 326 375 16,300 -1,620 Descending FlightAware
04:50PM 44.1900 -78.5390 235° Southwest 321 369 15,200 -1,680 Descending FlightAware
04:50PM 44.1520 -78.6130 234° Southwest 314 361 14,000 -1,560 Descending FlightAware
04:51PM 44.1200 -78.6750 234° Southwest 309 356 13,000 -1,560 Descending FlightAware
04:52PM 44.0810 -78.7500 234° Southwest 303 349 11,800 -1,560 Descending FlightAware
04:53PM 44.0480 -78.8100 233° Southwest 302 348 10,800 -1,380 Descending FlightAware
04:53PM 44.0050 -78.8750 227° Southwest 286 329 9,900 -1,200 Descending FlightAware
04:54PM 43.9920 -78.8940 226° Southwest 286 329 9,600 -1,500 Descending FlightAware
04:54PM 43.9690 -78.9290 228° Southwest 283 326 8,900 -1,500 Descending FlightAware
04:54PM 43.9570 -78.9470 227° Southwest 283 326 8,600 -1,380 Descending FlightAware
04:55PM 43.9300 -78.9880 228° Southwest 281 323 7,900 -1,440 Descending FlightAware
04:55PM 43.9130 -79.0140 228° Southwest 280 322 7,400 -1,020 Descending FlightAware
04:56PM 43.8880 -79.0590 232° Southwest 258 297 7,000 -480 Descending FlightAware
04:56PM 43.8840 -79.0830 257° West 241 277 7,000 -180 Level FlightAware
04:56PM 43.8870 -79.1200 276° West 231 266 6,900 -780 Descending FlightAware
04:57PM 43.8940 -79.1680 281° West 227 261 6,300 -1,200 Descending FlightAware
04:57PM 43.8970 -79.1900 281° West 225 259 6,000 -1,200 Descending FlightAware
04:57PM 43.8990 -79.2100 278° West 228 262 5,700 -1,200 Descending FlightAware
04:58PM 43.9050 -79.2610 279° West 229 264 5,000 -660 Descending FlightAware
04:58PM 43.9110 -79.3060 281° West 230 265 5,000  Level FlightAware
04:59PM 43.9090 -79.3340 264° West 230 265 5,000  Level FlightAware
04:59PM 43.8940 -79.3630 234° Southwest 235 270 5,000  Level FlightAware
05:00PM 43.8770 -79.3910 230° Southwest 223 257 5,000  Level FlightAware
05:00PM 43.8670 -79.4060 227° Southwest 210 242 5,000 -480 Level FlightAware
05:00PM 43.8480 -79.4300 222° Southwest 218 251 4,700 -1,080 Descending FlightAware
05:01PM 43.8340 -79.4490 224° Southwest 217 250 4,200 -1,200 Descending FlightAware
05:01PM 43.8170 -79.4730 226° Southwest 201 231 3,800 -1,080 Descending FlightAware
05:01PM 43.8080 -79.4860 226° Southwest 190 219 3,500 -1,080 Descending FlightAware
05:02PM 43.7900 -79.5130 227° Southwest 184 212 3,000 -1,020 Descending FlightAware
05:02PM 43.7760 -79.5340 227° Southwest 186 214 2,600 -1,080 Descending FlightAware
05:02PM 43.7690 -79.5430 223° Southwest 182 209 2,400 -960 Descending FlightAware
05:03PM 43.7510 -79.5710 228° Southwest 171 197 1,900 -900 Descending FlightAware
05:03PM 43.7360 -79.5910 224° Southwest 166 191 1,500 -900 Descending FlightAware
05:04PM 43.7230 -79.6110 228° Southwest 140 161 1,100 -660 Descending FlightAware
05:04PM 43.7130 -79.6270 229° Southwest 140 161 900 -360 Descending FlightAware
05:05PM 43.7000 -79.6450 225° Southwest 141 162 800 -240 Descending FlightAware